Terminal Aerodrome Forecast
Issued by NWS

Home | Current Version | Previous Version | Text Only | Print | Product List | Glossary On
Versions: 1 2 3 4 5 6 7 8 9 10 11 12 13
000
FTUS44 KOUN 240520
TAFHBR
TAF
KHBR 240520Z 2406/2506 16008KT P6SM SCT250
      TEMPO 2410/2414 4SM BR
     FM241500 20012G18KT P6SM SCT250=

USA.gov is the U.S. government's official web portal to all federal, state and local government web resources and services.